createdAt,value
2017-06-11T00:00:29.780Z,77.60
2017-06-11T00:02:58.198Z,77.50
2017-06-11T00:05:26.576Z,77.80
2017-06-11T00:07:54.979Z,78.00
2017-06-11T00:10:23.367Z,78.00
2017-06-11T00:12:51.757Z,77.90
2017-06-11T00:15:20.175Z,78.10
2017-06-11T00:17:49.330Z,78.10
2017-06-11T00:20:17.738Z,78.00
2017-06-11T00:22:46.924Z,78.40
2017-06-11T00:25:15.308Z,78.30
2017-06-11T00:27:43.697Z,78.40
2017-06-11T00:30:12.881Z,79.00
2017-06-11T00:32:41.282Z,78.30
2017-06-11T00:35:10.436Z,78.20
2017-06-11T00:37:38.843Z,78.10
2017-06-11T00:40:08.008Z,78.30
2017-06-11T00:42:36.387Z,78.20
2017-06-11T00:45:04.789Z,78.40
2017-06-11T00:47:33.943Z,79.30
2017-06-11T00:50:02.332Z,78.60
2017-06-11T00:52:30.792Z,78.60
2017-06-11T00:54:59.186Z,78.70
2017-06-11T00:57:27.575Z,78.70
2017-06-11T00:59:55.992Z,78.80
2017-06-11T01:02:25.149Z,79.10
2017-06-11T01:04:53.549Z,78.90
2017-06-11T01:07:22.876Z,79.70
2017-06-11T01:09:51.253Z,79.00
2017-06-11T01:12:19.642Z,79.00
2017-06-11T01:14:48.063Z,79.30
2017-06-11T01:17:16.450Z,79.20
2017-06-11T01:19:44.854Z,79.70
2017-06-11T01:22:14.057Z,79.60
2017-06-11T01:24:43.222Z,79.10
2017-06-11T01:27:11.623Z,79.10
2017-06-11T01:29:40.801Z,78.90
2017-06-11T01:32:09.204Z,79.00
2017-06-11T01:34:38.358Z,78.40
2017-06-11T01:37:06.763Z,78.40
2017-06-11T01:39:35.133Z,78.10
2017-06-11T01:42:03.509Z,77.70
2017-06-11T01:44:31.928Z,78.00
2017-06-11T01:47:00.304Z,77.60
2017-06-11T01:49:28.693Z,77.40
2017-06-11T01:51:57.098Z,77.10
2017-06-11T01:54:25.485Z,77.10
2017-06-11T01:56:53.898Z,76.90
2017-06-11T01:59:23.072Z,75.90
2017-06-11T02:01:51.461Z,75.90
2017-06-11T02:04:19.837Z,75.70
2017-06-11T02:06:48.370Z,75.30
2017-06-11T02:09:16.753Z,75.10
2017-06-11T02:11:45.138Z,75.00
2017-06-11T02:14:13.546Z,74.70
2017-06-11T02:16:41.935Z,74.70
2017-06-11T02:19:11.089Z,74.30
2017-06-11T02:21:39.492Z,74.30
2017-06-11T02:24:07.880Z,74.00
2017-06-11T02:26:36.255Z,73.80
2017-06-11T02:29:04.659Z,73.70
2017-06-11T02:31:33.049Z,73.60
2017-06-11T02:34:01.439Z,73.20
2017-06-11T02:36:29.846Z,73.40
2017-06-11T02:38:58.260Z,72.90
2017-06-11T02:41:26.637Z,72.90
2017-06-11T02:43:55.820Z,72.90
2017-06-11T02:46:24.225Z,72.80
2017-06-11T02:48:52.615Z,72.60
2017-06-11T02:51:21.033Z,72.80
2017-06-11T02:53:49.422Z,73.00
2017-06-11T02:56:17.835Z,72.00
2017-06-11T02:58:47.010Z,71.50
2017-06-11T03:01:15.431Z,71.50
2017-06-11T03:03:43.804Z,71.50
2017-06-11T03:06:12.988Z,71.30
2017-06-11T03:08:42.143Z,71.40
2017-06-11T03:11:10.532Z,71.50
2017-06-11T03:13:38.931Z,71.20
2017-06-11T03:16:08.094Z,71.60
2017-06-11T03:18:36.513Z,71.10
2017-06-11T03:21:05.839Z,71.20
2017-06-11T03:23:34.242Z,71.20
2017-06-11T03:26:02.624Z,71.40
2017-06-11T03:28:31.044Z,71.40
2017-06-11T03:30:59.431Z,71.40
2017-06-11T03:33:28.579Z,70.50
2017-06-11T03:35:56.989Z,70.40
2017-06-11T03:38:25.393Z,70.30
2017-06-11T03:40:54.545Z,70.30
2017-06-11T03:43:22.934Z,70.20
2017-06-11T03:45:51.323Z,70.90
2017-06-11T03:48:19.702Z,70.10
2017-06-11T03:50:48.116Z,70.30
2017-06-11T03:53:16.506Z,70.30
2017-06-11T03:55:44.904Z,70.40
2017-06-11T03:58:13.334Z,70.10
2017-06-11T04:00:42.515Z,70.00
2017-06-11T04:03:10.918Z,69.90
2017-06-11T04:05:39.369Z,69.60
2017-06-11T04:08:07.760Z,69.20
2017-06-11T04:10:36.162Z,69.40
2017-06-11T04:13:04.568Z,69.50
2017-06-11T04:15:32.955Z,69.50
2017-06-11T04:18:01.347Z,69.60
2017-06-11T04:20:29.747Z,69.00
2017-06-11T04:22:58.138Z,68.60
2017-06-11T04:25:27.377Z,67.60
2017-06-11T04:27:55.786Z,67.60
2017-06-11T04:30:24.175Z,67.40
2017-06-11T04:32:52.549Z,66.70
2017-06-11T04:35:20.969Z,66.70
2017-06-11T04:37:49.360Z,66.30
2017-06-11T04:40:17.747Z,66.20
2017-06-11T04:42:46.167Z,66.60
2017-06-11T04:45:14.542Z,66.30
2017-06-11T04:47:42.928Z,66.40
2017-06-11T04:50:11.343Z,66.00
2017-06-11T04:52:39.738Z,66.00
2017-06-11T04:55:08.125Z,65.60
2017-06-11T04:57:36.562Z,65.50
2017-06-11T05:00:04.968Z,65.40
2017-06-11T05:02:33.354Z,65.00
2017-06-11T05:05:01.776Z,64.20
2017-06-11T05:07:30.207Z,64.20
2017-06-11T05:09:58.615Z,63.30
2017-06-11T05:12:27.049Z,63.00
2017-06-11T05:14:55.509Z,62.60
2017-06-11T05:17:24.022Z,62.10
2017-06-11T05:19:52.433Z,62.00
2017-06-11T05:22:20.811Z,61.70
2017-06-11T05:24:49.226Z,62.10
2017-06-11T05:27:17.647Z,61.00
2017-06-11T05:29:46.056Z,61.30
2017-06-11T05:32:14.428Z,61.10
2017-06-11T05:34:42.877Z,61.20
2017-06-11T05:37:11.262Z,59.70
2017-06-11T05:39:39.715Z,59.90
2017-06-11T05:42:08.153Z,59.90
2017-06-11T05:44:36.554Z,61.10
2017-06-11T05:47:04.937Z,61.70
2017-06-11T05:49:34.212Z,60.40
2017-06-11T05:52:02.613Z,60.40
2017-06-11T05:54:30.997Z,60.60
2017-06-11T05:56:59.414Z,60.10
2017-06-11T05:59:28.309Z,60.70
2017-06-11T06:01:57.035Z,60.10
2017-06-11T06:04:26.306Z,58.70
2017-06-11T06:06:54.782Z,58.10
2017-06-11T06:09:23.186Z,58.90
2017-06-11T06:11:52.362Z,57.90
2017-06-11T06:14:20.766Z,58.30
2017-06-11T06:16:49.913Z,57.30
2017-06-11T06:19:18.310Z,57.30
2017-06-11T06:21:46.685Z,58.10
2017-06-11T06:24:15.072Z,56.50
2017-06-11T06:26:43.625Z,56.60
2017-06-11T06:29:12.017Z,55.60
2017-06-11T06:31:40.212Z,56.40
2017-06-11T06:34:08.421Z,55.40
2017-06-11T06:36:36.806Z,56.40
2017-06-11T06:39:04.506Z,57.60
2017-06-11T06:41:32.908Z,54.60
2017-06-11T06:44:01.282Z,55.60
2017-06-11T06:46:29.673Z,56.20
2017-06-11T06:48:58.097Z,54.50
2017-06-11T06:51:26.495Z,53.80
2017-06-11T06:53:54.898Z,53.00
2017-06-11T06:56:23.303Z,53.90
2017-06-11T06:58:52.458Z,53.90
2017-06-11T07:01:20.856Z,53.90
2017-06-11T07:03:49.290Z,54.80
2017-06-11T07:06:17.686Z,53.80
2017-06-11T07:08:46.061Z,54.30
2017-06-11T07:11:14.509Z,54.80
2017-06-11T07:13:42.886Z,54.30
2017-06-11T07:16:11.280Z,53.60
2017-06-11T07:18:39.705Z,53.30
2017-06-11T07:21:08.529Z,52.90
2017-06-11T07:23:37.175Z,53.70
2017-06-11T07:26:06.447Z,52.70
2017-06-11T07:28:34.835Z,53.20
2017-06-11T07:31:03.225Z,53.60
2017-06-11T07:33:31.631Z,51.60
2017-06-11T07:36:00.788Z,53.40
2017-06-11T07:38:29.176Z,53.20
2017-06-11T07:40:57.587Z,52.00
2017-06-11T07:43:26.748Z,51.70
2017-06-11T07:45:55.138Z,51.60
2017-06-11T07:48:23.542Z,53.20
2017-06-11T07:50:51.971Z,49.60
2017-06-11T07:53:20.394Z,50.80
2017-06-11T07:55:49.729Z,50.80
2017-06-11T07:58:18.100Z,50.70
2017-06-11T08:00:46.518Z,49.60
2017-06-11T08:03:14.930Z,50.00
2017-06-11T08:05:43.341Z,47.60
2017-06-11T08:08:11.738Z,50.00
2017-06-11T08:10:40.140Z,49.00
2017-06-11T08:13:08.532Z,48.20
2017-06-11T08:15:36.928Z,48.50
2017-06-11T08:18:05.338Z,48.50
2017-06-11T08:20:33.737Z,49.90
2017-06-11T08:23:02.126Z,48.80
2017-06-11T08:25:30.531Z,48.20
2017-06-11T08:27:59.705Z,48.20
2017-06-11T08:30:28.090Z,48.20
2017-06-11T08:32:56.524Z,48.00
2017-06-11T08:35:24.921Z,48.20
2017-06-11T08:37:53.310Z,47.20
2017-06-11T08:40:21.748Z,48.70
2017-06-11T08:42:50.152Z,48.80
2017-06-11T08:45:18.535Z,48.30
2017-06-11T08:47:46.956Z,46.80
2017-06-11T08:50:16.113Z,47.30
2017-06-11T08:52:44.509Z,47.30
2017-06-11T08:55:13.079Z,49.60
2017-06-11T08:57:41.474Z,47.20
2017-06-11T09:00:09.922Z,47.30
2017-06-11T09:02:39.872Z,46.80
2017-06-11T09:05:09.042Z,46.60
2017-06-11T09:07:37.448Z,46.60
2017-06-11T09:10:05.850Z,49.10
2017-06-11T09:12:35.107Z,46.00
2017-06-11T09:15:03.524Z,46.50
2017-06-11T09:17:31.927Z,46.60
2017-06-11T09:20:00.337Z,47.40
2017-06-11T09:22:28.862Z,47.00
2017-06-11T09:24:57.260Z,48.30
2017-06-11T09:27:25.655Z,46.80
2017-06-11T09:29:54.057Z,46.80
2017-06-11T09:32:22.467Z,46.90
2017-06-11T09:34:50.984Z,46.60
2017-06-11T09:37:19.481Z,48.10
2017-06-11T09:39:47.881Z,47.30
2017-06-11T09:42:16.279Z,47.50
2017-06-11T09:44:45.481Z,47.10
2017-06-11T09:47:13.881Z,47.00
2017-06-11T09:49:42.272Z,48.10
2017-06-11T09:52:10.689Z,47.00
2017-06-11T09:54:40.728Z,46.60
2017-06-11T09:57:09.885Z,47.40
2017-06-11T09:59:38.284Z,47.40
2017-06-11T10:02:07.446Z,45.70
2017-06-11T10:04:35.862Z,45.00
2017-06-11T10:07:04.253Z,44.90
2017-06-11T10:09:33.404Z,46.90
2017-06-11T10:12:01.810Z,46.90
2017-06-11T10:14:30.198Z,47.20
2017-06-11T10:16:58.588Z,46.90
2017-06-11T10:19:27.827Z,47.40
2017-06-11T10:21:56.209Z,47.30
2017-06-11T10:24:24.596Z,46.60
2017-06-11T10:26:53.017Z,47.50
2017-06-11T10:29:21.404Z,46.90
2017-06-11T10:31:50.561Z,46.30
2017-06-11T10:34:18.970Z,46.30
2017-06-11T10:36:48.132Z,46.00
2017-06-11T10:39:16.591Z,46.00
2017-06-11T10:41:45.015Z,45.20
2017-06-11T10:44:14.185Z,46.10
2017-06-11T10:46:42.574Z,46.00
2017-06-11T10:49:10.988Z,45.20
2017-06-11T10:51:39.393Z,45.00
2017-06-11T10:54:07.787Z,45.80
2017-06-11T10:56:36.209Z,47.10
2017-06-11T10:59:05.393Z,48.90
2017-06-11T11:01:33.784Z,48.90
2017-06-11T11:04:02.963Z,45.10
2017-06-11T11:06:31.342Z,45.00
2017-06-11T11:08:59.746Z,45.40
2017-06-11T11:11:28.913Z,47.10
2017-06-11T11:13:57.287Z,46.90
2017-06-11T11:16:25.705Z,47.60
2017-06-11T11:18:54.120Z,47.30
2017-06-11T11:21:22.530Z,46.90
2017-06-11T11:26:18.993Z,45.40
2017-06-11T11:28:47.427Z,42.20
2017-06-11T11:31:15.861Z,44.50
2017-06-11T11:33:44.290Z,44.20
2017-06-11T11:36:12.688Z,43.10
2017-06-11T11:38:41.077Z,42.60
2017-06-11T11:41:09.496Z,44.40
2017-06-11T11:43:39.108Z,45.00
2017-06-11T11:46:07.563Z,44.50
2017-06-11T11:48:35.985Z,46.60
2017-06-11T11:51:04.371Z,45.70
2017-06-11T11:53:32.764Z,47.90
2017-06-11T11:56:01.179Z,42.90
2017-06-11T11:58:29.568Z,42.70
2017-06-11T12:00:57.942Z,43.50
2017-06-11T12:03:26.350Z,44.00
2017-06-11T12:05:54.730Z,44.60
2017-06-11T12:08:22.931Z,46.50
2017-06-11T12:10:51.348Z,43.30
2017-06-11T12:13:19.734Z,43.30
2017-06-11T12:15:48.113Z,43.40
2017-06-11T12:18:16.520Z,42.20
2017-06-11T12:20:44.906Z,42.80
2017-06-11T12:23:13.320Z,45.70
2017-06-11T12:25:42.497Z,42.80
2017-06-11T12:28:10.873Z,42.40
2017-06-11T12:30:39.261Z,43.80
2017-06-11T12:33:07.664Z,43.70
2017-06-11T12:35:36.053Z,43.40
2017-06-11T12:38:04.442Z,42.20
2017-06-11T12:40:32.845Z,43.50
2017-06-11T12:43:01.234Z,45.70
2017-06-11T12:45:29.619Z,43.70
2017-06-11T12:47:58.053Z,44.00
2017-06-11T12:50:26.444Z,44.60
2017-06-11T12:52:54.824Z,43.20
2017-06-11T12:55:23.241Z,44.20
2017-06-11T12:57:51.614Z,44.80
2017-06-11T13:00:20.006Z,44.30
2017-06-11T13:02:48.423Z,44.60
2017-06-11T13:05:16.811Z,46.50
2017-06-11T13:07:45.187Z,47.90
2017-06-11T13:10:13.588Z,46.00
2017-06-11T13:12:41.974Z,46.30
2017-06-11T13:15:10.357Z,47.90
2017-06-11T13:17:38.772Z,49.60
2017-06-11T13:20:07.179Z,47.90
2017-06-11T13:22:35.566Z,47.10
2017-06-11T13:25:04.017Z,47.60
2017-06-11T13:27:32.404Z,46.90
2017-06-11T13:30:00.899Z,43.30
2017-06-11T13:32:29.303Z,45.90
2017-06-11T13:34:57.705Z,44.10
2017-06-11T13:37:26.096Z,45.40
2017-06-11T13:39:54.500Z,45.70
2017-06-11T13:42:22.899Z,46.40
2017-06-11T13:44:51.295Z,45.70
2017-06-11T13:47:19.715Z,46.50
2017-06-11T13:49:48.883Z,45.60
2017-06-11T13:52:17.271Z,46.10
2017-06-11T13:54:45.699Z,47.20
2017-06-11T13:57:14.184Z,46.30
2017-06-11T13:59:42.573Z,45.90
2017-06-11T14:02:11.065Z,47.50
2017-06-11T14:04:39.451Z,49.20
2017-06-11T14:07:07.833Z,47.20
2017-06-11T14:09:36.370Z,47.10
2017-06-11T14:12:04.760Z,47.40
2017-06-11T14:14:33.148Z,48.70
2017-06-11T14:17:01.776Z,48.60
2017-06-11T14:19:30.945Z,49.50
2017-06-11T14:22:01.010Z,49.40
2017-06-11T14:24:29.240Z,49.70
2017-06-11T14:26:57.436Z,50.50
2017-06-11T14:29:26.531Z,53.90
2017-06-11T14:31:55.682Z,54.50
2017-06-11T14:34:24.102Z,54.10
2017-06-11T14:36:53.452Z,52.10
2017-06-11T14:39:21.864Z,52.20
2017-06-11T14:41:50.269Z,52.90
2017-06-11T14:44:19.668Z,53.00
2017-06-11T14:46:48.808Z,51.40
2017-06-11T14:49:17.191Z,51.30
2017-06-11T14:51:45.585Z,52.90
2017-06-11T14:54:14.050Z,53.00
2017-06-11T14:56:42.441Z,53.10
2017-06-11T14:59:11.370Z,52.20
2017-06-11T15:01:40.522Z,52.20
2017-06-11T15:04:08.935Z,52.10
2017-06-11T15:06:38.150Z,52.30
2017-06-11T15:09:06.529Z,52.20
2017-06-11T15:11:34.920Z,51.80
2017-06-11T15:14:03.382Z,51.30
2017-06-11T15:16:31.796Z,51.60
2017-06-11T15:19:00.175Z,49.10
2017-06-11T15:21:29.164Z,50.80
2017-06-11T15:23:57.557Z,49.80
2017-06-11T15:26:25.937Z,50.00
2017-06-11T15:28:54.452Z,48.70
2017-06-11T15:31:23.001Z,49.40
2017-06-11T15:33:51.390Z,50.00
2017-06-11T15:36:20.024Z,49.80
2017-06-11T15:38:48.408Z,50.60
2017-06-11T15:41:16.908Z,51.90
2017-06-11T15:43:47.082Z,51.10
2017-06-11T15:46:16.236Z,51.50
2017-06-11T15:48:45.641Z,53.90
2017-06-11T15:51:14.090Z,53.90
2017-06-11T15:53:42.469Z,53.00
2017-06-11T15:56:10.900Z,53.20
2017-06-11T15:58:39.443Z,52.90
2017-06-11T16:01:08.566Z,53.10
2017-06-11T16:03:36.964Z,52.20
2017-06-11T16:06:06.159Z,54.30
2017-06-11T16:08:35.327Z,54.20
2017-06-11T16:11:03.712Z,54.10
2017-06-11T16:13:32.326Z,53.30
2017-06-11T16:16:01.490Z,53.80
2017-06-11T16:18:29.883Z,53.70
2017-06-11T16:20:58.463Z,54.40
2017-06-11T16:23:26.843Z,55.40
2017-06-11T16:25:55.219Z,53.50
2017-06-11T16:28:24.565Z,53.60
2017-06-11T16:30:52.950Z,53.10
2017-06-11T16:33:21.339Z,53.70
2017-06-11T16:35:49.750Z,53.90
2017-06-11T16:38:18.138Z,54.40
2017-06-11T16:40:46.555Z,55.60
2017-06-11T16:43:15.048Z,54.60
2017-06-11T16:45:43.438Z,55.10
2017-06-11T16:48:11.838Z,55.40
2017-06-11T16:50:40.342Z,55.60
2017-06-11T16:53:08.728Z,56.20
2017-06-11T16:55:37.882Z,56.20
2017-06-11T16:58:06.376Z,56.10
2017-06-11T17:00:34.755Z,55.40
2017-06-11T17:03:03.124Z,55.30
2017-06-11T17:05:31.780Z,56.50
2017-06-11T17:08:00.191Z,55.20
2017-06-11T17:10:28.564Z,56.10
2017-06-11T17:12:57.173Z,56.20
2017-06-11T17:15:26.342Z,56.70
2017-06-11T17:17:54.739Z,56.60
2017-06-11T17:20:23.263Z,57.10
2017-06-11T17:22:51.758Z,57.70
2017-06-11T17:25:20.132Z,57.70
2017-06-11T17:27:48.665Z,56.90
2017-06-11T17:30:17.044Z,57.10
2017-06-11T17:32:46.199Z,56.60
2017-06-11T17:35:14.592Z,56.00
2017-06-11T17:37:42.991Z,56.90
2017-06-11T17:40:11.366Z,56.60
2017-06-11T17:42:39.963Z,55.50
2017-06-11T17:45:09.108Z,55.40
2017-06-11T17:47:37.499Z,55.40
2017-06-11T17:50:05.954Z,56.10
2017-06-11T17:52:34.329Z,56.10
2017-06-11T17:55:02.709Z,56.50
2017-06-11T17:57:31.457Z,56.40
2017-06-11T18:00:00.614Z,57.20
2017-06-11T18:02:29.004Z,56.70
2017-06-11T18:04:57.496Z,56.40
2017-06-11T18:07:25.910Z,56.20
2017-06-11T18:09:54.315Z,56.80
2017-06-11T18:12:22.830Z,57.10
2017-06-11T18:14:51.218Z,57.10
2017-06-11T18:17:19.594Z,57.10
2017-06-11T18:19:48.117Z,57.10
2017-06-11T18:22:16.502Z,57.70
2017-06-11T18:24:46.242Z,57.20
2017-06-11T18:27:15.464Z,57.40
2017-06-11T18:29:44.823Z,57.00
2017-06-11T18:32:14.955Z,57.30
2017-06-11T18:34:43.768Z,57.70
2017-06-11T18:37:14.015Z,58.90
2017-06-11T18:39:43.262Z,58.30
2017-06-11T18:42:16.018Z,58.20
2017-06-11T18:44:46.385Z,58.30
2017-06-11T18:47:15.729Z,58.50
2017-06-11T18:49:44.111Z,58.50
2017-06-11T18:52:13.171Z,58.40
2017-06-11T18:54:42.057Z,58.20
2017-06-11T18:57:10.787Z,58.20
2017-06-11T18:59:41.044Z,58.50
2017-06-11T19:02:09.502Z,58.70
2017-06-11T19:04:38.866Z,59.00
2017-06-11T19:07:06.955Z,59.20
2017-06-11T19:09:35.349Z,59.20
2017-06-11T19:12:03.763Z,59.80
2017-06-11T19:14:32.499Z,59.70
2017-06-11T19:17:02.500Z,59.80
2017-06-11T19:19:30.891Z,59.70
2017-06-11T19:21:59.752Z,60.10
2017-06-11T19:24:30.079Z,60.50
2017-06-11T19:27:00.407Z,60.30
2017-06-11T19:29:30.471Z,60.70
2017-06-11T19:31:58.846Z,60.60
2017-06-11T19:34:27.483Z,61.10
2017-06-11T19:36:56.758Z,62.20
2017-06-11T19:39:25.146Z,62.10
2017-06-11T19:41:53.679Z,61.70
2017-06-11T19:44:22.173Z,62.80
2017-06-11T19:46:56.384Z,62.50
2017-06-11T19:49:25.231Z,62.90
2017-06-11T19:51:53.617Z,63.50
2017-06-11T19:54:21.995Z,63.60
2017-06-11T19:56:50.921Z,63.60
2017-06-11T19:59:19.310Z,63.80
2017-06-11T20:01:47.704Z,64.50
2017-06-11T20:04:16.524Z,64.60
2017-06-11T20:06:44.947Z,64.70
2017-06-11T20:09:13.334Z,64.30
2017-06-11T20:11:41.980Z,64.30
2017-06-11T20:14:10.363Z,64.70
2017-06-11T20:16:39.431Z,63.90
2017-06-11T20:19:08.176Z,64.20
2017-06-11T20:21:36.730Z,64.30
2017-06-11T20:24:05.127Z,64.50
2017-06-11T20:26:33.787Z,64.80
2017-06-11T20:29:02.193Z,65.30
2017-06-11T20:31:30.581Z,65.10
2017-06-11T20:33:58.983Z,65.10
2017-06-11T20:36:27.357Z,65.10
2017-06-11T20:38:55.726Z,64.90
2017-06-11T20:41:24.345Z,65.00
2017-06-11T20:43:52.750Z,64.70
2017-06-11T20:46:21.138Z,64.50
2017-06-11T20:48:50.822Z,64.60
2017-06-11T20:51:19.201Z,64.80
2017-06-11T20:53:47.607Z,64.60
2017-06-11T20:56:16.048Z,64.80
2017-06-11T20:58:44.469Z,65.70
2017-06-11T21:01:12.925Z,65.20
2017-06-11T21:03:41.643Z,66.10
2017-06-11T21:06:10.040Z,68.40
2017-06-11T21:08:39.201Z,77.50
2017-06-11T21:11:07.943Z,76.90
2017-06-11T21:13:36.392Z,79.40
2017-06-11T21:16:04.774Z,81.20
2017-06-11T21:18:34.101Z,85.00
2017-06-11T21:21:03.746Z,84.90
2017-06-11T21:23:32.312Z,85.40
2017-06-11T21:26:01.623Z,85.90
2017-06-11T21:28:30.058Z,86.40
2017-06-11T21:30:58.499Z,86.50
2017-06-11T21:33:26.982Z,86.80
2017-06-11T21:35:56.682Z,86.90
2017-06-11T21:41:05.183Z,86.80
2017-06-11T21:43:34.007Z,86.80
2017-06-11T21:46:02.401Z,86.40
2017-06-11T21:48:30.788Z,86.20
2017-06-11T21:51:00.200Z,86.10
2017-06-11T21:53:28.576Z,86.10
2017-06-11T21:55:56.982Z,85.20
2017-06-11T21:58:25.437Z,85.00
2017-06-11T22:00:53.937Z,84.70
2017-06-11T22:03:22.326Z,85.30
2017-06-11T22:05:50.849Z,85.10
2017-06-11T22:08:20.004Z,85.20
2017-06-11T22:10:48.393Z,84.50
2017-06-11T22:13:17.023Z,84.40
2017-06-11T22:15:46.179Z,83.80
2017-06-11T22:18:14.550Z,83.70
2017-06-11T22:20:43.076Z,84.00
2017-06-11T22:23:12.230Z,83.80
2017-06-11T22:25:40.684Z,83.80
2017-06-11T22:28:09.342Z,83.70
2017-06-11T22:30:38.494Z,83.80
2017-06-11T22:33:06.882Z,83.80
2017-06-11T22:35:35.423Z,84.10
2017-06-11T22:38:03.827Z,84.60
2017-06-11T22:40:32.198Z,83.70
2017-06-11T22:43:00.828Z,82.50
2017-06-11T22:45:29.202Z,82.40
2017-06-11T22:47:58.355Z,83.10
2017-06-11T22:50:26.763Z,83.10
2017-06-11T22:52:55.144Z,82.90
2017-06-11T22:55:24.302Z,83.00
2017-06-11T22:57:52.812Z,83.00
2017-06-11T23:00:21.202Z,83.00
2017-06-11T23:02:49.575Z,82.60
2017-06-11T23:05:18.036Z,82.80
2017-06-11T23:07:46.443Z,83.00
2017-06-11T23:10:15.601Z,83.00
2017-06-11T23:12:44.246Z,83.10
2017-06-11T23:15:12.643Z,82.80
2017-06-11T23:17:41.039Z,83.10
2017-06-11T23:20:09.667Z,83.50
2017-06-11T23:22:38.830Z,83.70
2017-06-11T23:25:07.209Z,83.70
2017-06-11T23:27:35.611Z,83.80
2017-06-11T23:30:03.984Z,83.50
2017-06-11T23:32:32.369Z,83.50
2017-06-11T23:35:00.887Z,83.90
2017-06-11T23:37:29.258Z,84.00
2017-06-11T23:39:57.647Z,83.40
2017-06-11T23:42:26.166Z,83.00
2017-06-11T23:44:54.574Z,81.80
2017-06-11T23:47:23.729Z,79.30
2017-06-11T23:49:52.255Z,78.50
2017-06-11T23:52:20.637Z,79.70
2017-06-11T23:54:49.026Z,80.30
2017-06-11T23:57:17.462Z,80.80
2017-06-11T23:59:45.839Z,80.70
